Decoded Metar for LFMI (ISTRES in FRANCE) (IATA:N/A) | Meteo·Mobile Aviation Weather
aviador You're here:

LFMI Decoded Metar

ISTRES in FRANCE
Report Time2018-10-18 15:00:00
UTC Time2018-10-18 15:32:52
Flight Rules vfr VFR
Wind330° at 08 kt
W.Decomp.*RWY 33: 8.0 kt HW 0 kt LCW
W.Rank330° ranks 2
Current wind is below 330° avg. (15.2)
Visibility9999 m
Phenomena:N/A
Clouds:Few 008 Hf
Expected CloudBase > 2,400 ft AGL from Temp-Dew spread
CeilingNone
Temp23°C (ISA +8)
Dew Point17°C (69% RH)
AAT22.5°C
QNH1012 hPa
Density Alt1,319 ft
Elevation79 ft
Report Wrong Elevation
Raw Report
LFMI 181500Z AUTO 33008KT 9999 FEW008 23/17 Q1012 NOSIG=

Extra information for LFMI:More info

Metar Taf Metar & Taf Last 4 Metars F.Rules Stats Wind Profile Meteogram Temp Stats Airport Information Weather charts Add Link Nearby VenuesMetar ALERT Operation Metar Decoded Social comments